sensor_id;sensor_type;location;lat;lon;timestamp;pressure;altitude;pressure_sealevel;temperature;humidity
6144;BME280;3103;49.492;8.474;2023-02-22T00:01:14;100434.28;;;9.72;66.18
6144;BME280;3103;49.492;8.474;2023-02-22T00:04:04;100438.84;;;9.71;65.77
6144;BME280;3103;49.492;8.474;2023-02-22T00:06:32;100441.63;;;9.65;66.12
6144;BME280;3103;49.492;8.474;2023-02-22T00:08:59;100434.84;;;9.62;66.39
6144;BME280;3103;49.492;8.474;2023-02-22T00:11:28;100433.47;;;9.60;66.49
6144;BME280;3103;49.492;8.474;2023-02-22T00:13:54;100432.28;;;9.67;66.05
6144;BME280;3103;49.492;8.474;2023-02-22T00:16:25;100426.69;;;9.69;66.21
6144;BME280;3103;49.492;8.474;2023-02-22T00:18:52;100422.25;;;9.63;66.25
6144;BME280;3103;49.492;8.474;2023-02-22T00:21:19;100422.72;;;9.60;66.39
6144;BME280;3103;49.492;8.474;2023-02-22T00:23:47;100429.16;;;9.59;66.38
6144;BME280;3103;49.492;8.474;2023-02-22T00:26:16;100424.34;;;9.49;66.75
6144;BME280;3103;49.492;8.474;2023-02-22T00:28:47;100425.41;;;9.60;66.90
6144;BME280;3103;49.492;8.474;2023-02-22T00:31:14;100422.50;;;9.49;67.31
6144;BME280;3103;49.492;8.474;2023-02-22T00:33:41;100422.00;;;9.41;67.29
6144;BME280;3103;49.492;8.474;2023-02-22T00:36:10;100421.78;;;9.42;67.22
6144;BME280;3103;49.492;8.474;2023-02-22T00:38:38;100410.00;;;9.32;67.10
6144;BME280;3103;49.492;8.474;2023-02-22T00:41:05;100416.41;;;9.31;67.32
6144;BME280;3103;49.492;8.474;2023-02-22T00:43:32;100413.97;;;9.29;67.37
6144;BME280;3103;49.492;8.474;2023-02-22T00:45:59;100408.13;;;9.32;67.37
6144;BME280;3103;49.492;8.474;2023-02-22T00:48:26;100409.91;;;9.50;67.15
6144;BME280;3103;49.492;8.474;2023-02-22T00:50:53;100399.88;;;9.57;66.58
6144;BME280;3103;49.492;8.474;2023-02-22T00:53:22;100403.00;;;9.54;66.46
6144;BME280;3103;49.492;8.474;2023-02-22T00:55:50;100400.91;;;9.56;66.47
6144;BME280;3103;49.492;8.474;2023-02-22T00:58:17;100403.72;;;9.49;66.83
6144;BME280;3103;49.492;8.474;2023-02-22T01:00:44;100405.59;;;9.49;67.14
6144;BME280;3103;49.492;8.474;2023-02-22T01:03:15;100408.13;;;9.56;66.71
6144;BME280;3103;49.492;8.474;2023-02-22T01:05:43;100408.75;;;9.58;66.80
6144;BME280;3103;49.492;8.474;2023-02-22T01:08:12;100405.44;;;9.56;67.00
6144;BME280;3103;49.492;8.474;2023-02-22T01:10:39;100397.19;;;9.45;68.12
6144;BME280;3103;49.492;8.474;2023-02-22T01:13:07;100391.94;;;9.39;68.34
6144;BME280;3103;49.492;8.474;2023-02-22T01:15:37;100393.31;;;9.41;68.56
6144;BME280;3103;49.492;8.474;2023-02-22T01:18:04;100388.41;;;9.27;68.92
6144;BME280;3103;49.492;8.474;2023-02-22T01:20:32;100388.31;;;9.21;69.69
6144;BME280;3103;49.492;8.474;2023-02-22T01:23:00;100385.84;;;9.20;70.41
6144;BME280;3103;49.492;8.474;2023-02-22T01:25:29;100374.56;;;9.30;70.31
6144;BME280;3103;49.492;8.474;2023-02-22T01:27:59;100385.50;;;9.40;70.10
6144;BME280;3103;49.492;8.474;2023-02-22T01:30:28;100379.56;;;9.38;70.01
6144;BME280;3103;49.492;8.474;2023-02-22T01:32:56;100378.75;;;9.37;70.04
6144;BME280;3103;49.492;8.474;2023-02-22T01:35:27;100380.28;;;9.33;70.17
6144;BME280;3103;49.492;8.474;2023-02-22T01:37:55;100381.88;;;9.22;71.18
6144;BME280;3103;49.492;8.474;2023-02-22T01:40:27;100382.00;;;9.39;70.09
6144;BME280;3103;49.492;8.474;2023-02-22T01:43:01;100375.38;;;9.18;71.12
6144;BME280;3103;49.492;8.474;2023-02-22T01:48:03;100369.63;;;9.03;72.09
6144;BME280;3103;49.492;8.474;2023-02-22T01:50:36;100373.13;;;9.04;72.13
6144;BME280;3103;49.492;8.474;2023-02-22T01:53:06;100369.75;;;9.08;71.89
6144;BME280;3103;49.492;8.474;2023-02-22T01:55:34;100373.72;;;9.06;72.06
6144;BME280;3103;49.492;8.474;2023-02-22T01:58:02;100366.03;;;9.09;71.71
6144;BME280;3103;49.492;8.474;2023-02-22T02:00:30;100365.56;;;9.24;71.54
6144;BME280;3103;49.492;8.474;2023-02-22T02:03:07;100360.44;;;9.22;70.92
6144;BME280;3103;49.492;8.474;2023-02-22T02:05:36;100359.88;;;9.20;71.05
6144;BME280;3103;49.492;8.474;2023-02-22T02:08:13;100358.72;;;9.16;70.86
6144;BME280;3103;49.492;8.474;2023-02-22T02:10:42;100355.22;;;9.16;70.87
6144;BME280;3103;49.492;8.474;2023-02-22T02:13:10;100345.63;;;9.08;71.17
6144;BME280;3103;49.492;8.474;2023-02-22T02:15:56;100350.75;;;9.10;70.86
6144;BME280;3103;49.492;8.474;2023-02-22T02:18:25;100349.69;;;8.99;71.25
6144;BME280;3103;49.492;8.474;2023-02-22T02:21:05;100348.66;;;8.88;71.54
6144;BME280;3103;49.492;8.474;2023-02-22T02:29:48;100351.38;;;8.70;72.21
6144;BME280;3103;49.492;8.474;2023-02-22T02:40:31;100347.09;;;8.81;71.74
6144;BME280;3103;49.492;8.474;2023-02-22T02:46:05;100335.06;;;8.72;72.21
6144;BME280;3103;49.492;8.474;2023-02-22T02:48:37;100334.13;;;8.66;72.52
6144;BME280;3103;49.492;8.474;2023-02-22T02:51:05;100338.91;;;8.64;72.51
6144;BME280;3103;49.492;8.474;2023-02-22T02:53:38;100333.69;;;8.69;72.46
6144;BME280;3103;49.492;8.474;2023-02-22T02:56:06;100331.00;;;8.69;72.24
6144;BME280;3103;49.492;8.474;2023-02-22T02:58:33;100328.09;;;8.71;72.18
6144;BME280;3103;49.492;8.474;2023-02-22T03:01:01;100330.41;;;8.67;72.08
6144;BME280;3103;49.492;8.474;2023-02-22T03:03:45;100324.56;;;8.58;72.54
6144;BME280;3103;49.492;8.474;2023-02-22T03:12:07;100316.31;;;8.60;72.58
6144;BME280;3103;49.492;8.474;2023-02-22T03:15:02;100314.53;;;8.54;73.12
6144;BME280;3103;49.492;8.474;2023-02-22T03:17:45;100320.03;;;8.59;72.67
6144;BME280;3103;49.492;8.474;2023-02-22T03:23:16;100301.25;;;8.47;72.73
6144;BME280;3103;49.492;8.474;2023-02-22T03:26:00;100309.66;;;8.51;73.15
6144;BME280;3103;49.492;8.474;2023-02-22T03:28:30;100306.03;;;8.45;73.04
6144;BME280;3103;49.492;8.474;2023-02-22T03:31:08;100302.28;;;8.35;73.65
6144;BME280;3103;49.492;8.474;2023-02-22T03:33:52;100304.75;;;8.29;74.29
6144;BME280;3103;49.492;8.474;2023-02-22T03:38:53;100306.25;;;8.44;73.69
6144;BME280;3103;49.492;8.474;2023-02-22T03:41:24;100297.38;;;8.43;73.36
6144;BME280;3103;49.492;8.474;2023-02-22T03:44:01;100299.63;;;8.28;73.43
6144;BME280;3103;49.492;8.474;2023-02-22T03:46:30;100293.00;;;8.19;73.94
6144;BME280;3103;49.492;8.474;2023-02-22T03:49:03;100296.06;;;8.04;74.28
6144;BME280;3103;49.492;8.474;2023-02-22T03:51:37;100295.66;;;7.89;74.98
6144;BME280;3103;49.492;8.474;2023-02-22T03:54:05;100301.00;;;7.89;75.16
6144;BME280;3103;49.492;8.474;2023-02-22T03:56:39;100300.09;;;7.95;75.18
6144;BME280;3103;49.492;8.474;2023-02-22T03:59:12;100304.69;;;7.88;75.03
6144;BME280;3103;49.492;8.474;2023-02-22T04:01:40;100306.88;;;7.79;74.86
6144;BME280;3103;49.492;8.474;2023-02-22T04:04:07;100295.50;;;7.65;75.72
6144;BME280;3103;49.492;8.474;2023-02-22T04:06:36;100309.31;;;7.81;74.96
6144;BME280;3103;49.492;8.474;2023-02-22T04:09:03;100294.91;;;7.82;74.32
6144;BME280;3103;49.492;8.474;2023-02-22T04:11:30;100295.84;;;7.87;74.17
6144;BME280;3103;49.492;8.474;2023-02-22T04:13:56;100300.38;;;7.87;74.20
6144;BME280;3103;49.492;8.474;2023-02-22T04:16:24;100305.09;;;7.91;74.42
6144;BME280;3103;49.492;8.474;2023-02-22T04:18:50;100307.75;;;7.91;74.20
6144;BME280;3103;49.492;8.474;2023-02-22T04:21:18;100310.66;;;7.90;74.47
6144;BME280;3103;49.492;8.474;2023-02-22T04:23:47;100301.50;;;7.97;74.68
6144;BME280;3103;49.492;8.474;2023-02-22T04:26:14;100296.84;;;7.93;74.79
6144;BME280;3103;49.492;8.474;2023-02-22T04:28:47;100303.44;;;7.90;74.44
6144;BME280;3103;49.492;8.474;2023-02-22T04:31:16;100306.41;;;7.82;75.11
6144;BME280;3103;49.492;8.474;2023-02-22T04:33:44;100304.09;;;7.86;74.89
6144;BME280;3103;49.492;8.474;2023-02-22T04:36:14;100306.88;;;7.79;75.01
6144;BME280;3103;49.492;8.474;2023-02-22T04:38:42;100306.19;;;7.84;75.09
6144;BME280;3103;49.492;8.474;2023-02-22T04:41:09;100306.66;;;7.81;75.36
6144;BME280;3103;49.492;8.474;2023-02-22T04:43:36;100306.19;;;7.84;75.78
6144;BME280;3103;49.492;8.474;2023-02-22T04:46:30;100300.84;;;7.84;75.20
6144;BME280;3103;49.492;8.474;2023-02-22T04:48:57;100307.31;;;7.76;76.05
6144;BME280;3103;49.492;8.474;2023-02-22T04:51:26;100307.47;;;7.81;76.00
6144;BME280;3103;49.492;8.474;2023-02-22T04:54:03;100305.97;;;7.85;76.25
6144;BME280;3103;49.492;8.474;2023-02-22T04:56:32;100301.97;;;7.76;75.98
6144;BME280;3103;49.492;8.474;2023-02-22T04:58:59;100300.72;;;7.60;76.40
6144;BME280;3103;49.492;8.474;2023-02-22T05:01:30;100291.50;;;7.56;77.17
6144;BME280;3103;49.492;8.474;2023-02-22T05:03:57;100297.66;;;7.57;77.11
6144;BME280;3103;49.492;8.474;2023-02-22T05:06:23;100296.38;;;7.59;76.82
6144;BME280;3103;49.492;8.474;2023-02-22T05:08:50;100291.66;;;7.61;77.51
6144;BME280;3103;49.492;8.474;2023-02-22T05:11:17;100299.97;;;7.71;77.02
6144;BME280;3103;49.492;8.474;2023-02-22T05:13:44;100295.06;;;7.68;76.93
6144;BME280;3103;49.492;8.474;2023-02-22T05:16:11;100292.72;;;7.60;77.49
6144;BME280;3103;49.492;8.474;2023-02-22T05:18:38;100282.75;;;7.49;77.30
6144;BME280;3103;49.492;8.474;2023-02-22T05:21:04;100289.56;;;7.45;78.68
6144;BME280;3103;49.492;8.474;2023-02-22T05:23:32;100282.97;;;7.48;78.11
6144;BME280;3103;49.492;8.474;2023-02-22T05:25:59;100289.28;;;7.53;78.24
6144;BME280;3103;49.492;8.474;2023-02-22T05:28:26;100285.50;;;7.61;78.00
6144;BME280;3103;49.492;8.474;2023-02-22T05:30:53;100284.47;;;7.62;78.08
6144;BME280;3103;49.492;8.474;2023-02-22T05:33:19;100283.47;;;7.56;77.60
6144;BME280;3103;49.492;8.474;2023-02-22T05:35:46;100287.56;;;7.59;78.28
6144;BME280;3103;49.492;8.474;2023-02-22T05:38:14;100290.91;;;7.54;77.64
6144;BME280;3103;49.492;8.474;2023-02-22T05:40:41;100292.19;;;7.52;78.05
6144;BME280;3103;49.492;8.474;2023-02-22T05:43:08;100284.97;;;7.52;77.26
6144;BME280;3103;49.492;8.474;2023-02-22T05:45:35;100281.34;;;7.47;77.24
6144;BME280;3103;49.492;8.474;2023-02-22T05:48:02;100284.22;;;7.45;76.84
6144;BME280;3103;49.492;8.474;2023-02-22T05:50:29;100284.53;;;7.37;76.84
6144;BME280;3103;49.492;8.474;2023-02-22T05:52:56;100278.50;;;7.41;77.07
6144;BME280;3103;49.492;8.474;2023-02-22T05:55:23;100278.03;;;7.44;76.30
6144;BME280;3103;49.492;8.474;2023-02-22T05:57:51;100285.03;;;7.45;75.86
6144;BME280;3103;49.492;8.474;2023-02-22T06:00:23;100291.88;;;7.41;75.85
6144;BME280;3103;49.492;8.474;2023-02-22T06:02:55;100281.16;;;7.41;75.89
6144;BME280;3103;49.492;8.474;2023-02-22T06:05:22;100285.88;;;7.46;76.17
6144;BME280;3103;49.492;8.474;2023-02-22T06:07:48;100284.66;;;7.42;76.47
6144;BME280;3103;49.492;8.474;2023-02-22T06:10:15;100288.69;;;7.51;75.50
6144;BME280;3103;49.492;8.474;2023-02-22T06:12:42;100290.47;;;7.39;75.71
6144;BME280;3103;49.492;8.474;2023-02-22T06:15:09;100296.31;;;7.29;77.35
6144;BME280;3103;49.492;8.474;2023-02-22T06:17:36;100289.91;;;7.30;77.04
6144;BME280;3103;49.492;8.474;2023-02-22T06:20:05;100297.94;;;7.30;77.59
6144;BME280;3103;49.492;8.474;2023-02-22T06:22:33;100286.81;;;7.33;77.14
6144;BME280;3103;49.492;8.474;2023-02-22T06:25:02;100294.41;;;7.55;77.43
6144;BME280;3103;49.492;8.474;2023-02-22T06:27:32;100298.69;;;7.56;77.55
6144;BME280;3103;49.492;8.474;2023-02-22T06:30:00;100300.88;;;7.47;78.20
6144;BME280;3103;49.492;8.474;2023-02-22T06:32:30;100289.38;;;7.47;78.16
6144;BME280;3103;49.492;8.474;2023-02-22T06:34:56;100290.53;;;7.51;78.66
6144;BME280;3103;49.492;8.474;2023-02-22T06:37:24;100295.75;;;7.64;77.95
6144;BME280;3103;49.492;8.474;2023-02-22T06:39:50;100303.41;;;7.60;77.72
6144;BME280;3103;49.492;8.474;2023-02-22T06:42:17;100296.38;;;7.59;77.87
6144;BME280;3103;49.492;8.474;2023-02-22T06:44:43;100301.91;;;7.64;77.49
6144;BME280;3103;49.492;8.474;2023-02-22T06:47:10;100310.81;;;7.58;77.91
6144;BME280;3103;49.492;8.474;2023-02-22T06:49:37;100312.53;;;7.53;78.31
6144;BME280;3103;49.492;8.474;2023-02-22T06:52:04;100310.06;;;7.51;78.16
6144;BME280;3103;49.492;8.474;2023-02-22T06:54:32;100314.53;;;7.14;80.00
6144;BME280;3103;49.492;8.474;2023-02-22T06:56:58;100319.78;;;7.45;78.76
6144;BME280;3103;49.492;8.474;2023-02-22T06:59:25;100322.25;;;7.47;79.10
6144;BME280;3103;49.492;8.474;2023-02-22T07:01:53;100314.97;;;7.54;78.93
6144;BME280;3103;49.492;8.474;2023-02-22T07:04:20;100318.19;;;7.63;78.75
6144;BME280;3103;49.492;8.474;2023-02-22T07:06:48;100321.22;;;7.66;78.59
6144;BME280;3103;49.492;8.474;2023-02-22T07:09:17;100320.31;;;7.72;78.42
6144;BME280;3103;49.492;8.474;2023-02-22T07:11:43;100321.00;;;7.68;78.22
6144;BME280;3103;49.492;8.474;2023-02-22T07:14:10;100326.56;;;7.48;79.03
6144;BME280;3103;49.492;8.474;2023-02-22T07:16:37;100331.44;;;7.33;79.35
6144;BME280;3103;49.492;8.474;2023-02-22T07:19:04;100321.59;;;7.08;80.62
6144;BME280;3103;49.492;8.474;2023-02-22T07:21:30;100325.78;;;7.23;80.41
6144;BME280;3103;49.492;8.474;2023-02-22T07:23:57;100327.25;;;7.19;80.90
6144;BME280;3103;49.492;8.474;2023-02-22T07:26:26;100324.16;;;7.22;80.59
6144;BME280;3103;49.492;8.474;2023-02-22T07:28:53;100323.47;;;7.26;80.93
6144;BME280;3103;49.492;8.474;2023-02-22T07:31:20;100328.69;;;7.39;80.64
6144;BME280;3103;49.492;8.474;2023-02-22T07:33:47;100331.38;;;7.58;79.32
6144;BME280;3103;49.492;8.474;2023-02-22T07:36:14;100334.50;;;7.73;78.83
6144;BME280;3103;49.492;8.474;2023-02-22T07:38:44;100334.56;;;7.85;78.60
6144;BME280;3103;49.492;8.474;2023-02-22T07:41:11;100334.56;;;8.03;78.06
6144;BME280;3103;49.492;8.474;2023-02-22T07:43:38;100338.25;;;8.02;78.23
6144;BME280;3103;49.492;8.474;2023-02-22T07:46:04;100337.38;;;8.08;77.09
6144;BME280;3103;49.492;8.474;2023-02-22T07:48:31;100324.31;;;8.30;77.62
6144;BME280;3103;49.492;8.474;2023-02-22T07:50:58;100328.28;;;8.46;76.19
6144;BME280;3103;49.492;8.474;2023-02-22T07:53:30;100325.44;;;8.41;75.60
6144;BME280;3103;49.492;8.474;2023-02-22T07:56:00;100332.16;;;8.61;74.55
6144;BME280;3103;49.492;8.474;2023-02-22T07:58:29;100329.28;;;8.86;73.15
6144;BME280;3103;49.492;8.474;2023-02-22T08:00:56;100325.44;;;8.82;73.18
6144;BME280;3103;49.492;8.474;2023-02-22T08:03:25;100326.06;;;9.08;72.32
6144;BME280;3103;49.492;8.474;2023-02-22T08:05:54;100323.03;;;9.16;71.38
6144;BME280;3103;49.492;8.474;2023-02-22T08:08:21;100325.81;;;9.09;71.30
6144;BME280;3103;49.492;8.474;2023-02-22T08:10:49;100330.47;;;8.90;71.85
6144;BME280;3103;49.492;8.474;2023-02-22T08:13:17;100320.09;;;8.94;71.96
6144;BME280;3103;49.492;8.474;2023-02-22T08:15:44;100318.72;;;9.15;71.80
6144;BME280;3103;49.492;8.474;2023-02-22T08:18:15;100314.63;;;9.36;71.70
6144;BME280;3103;49.492;8.474;2023-02-22T08:20:43;100320.56;;;9.38;71.25
6144;BME280;3103;49.492;8.474;2023-02-22T08:23:12;100314.41;;;9.37;70.17
6144;BME280;3103;49.492;8.474;2023-02-22T08:25:40;100321.75;;;9.18;70.50
6144;BME280;3103;49.492;8.474;2023-02-22T08:28:10;100314.75;;;8.94;71.37
6144;BME280;3103;49.492;8.474;2023-02-22T08:30:38;100315.31;;;8.84;71.62
6144;BME280;3103;49.492;8.474;2023-02-22T08:33:06;100321.63;;;9.02;71.18
6144;BME280;3103;49.492;8.474;2023-02-22T08:35:33;100329.22;;;9.05;70.58
6144;BME280;3103;49.492;8.474;2023-02-22T08:38:02;100333.16;;;9.02;69.89
6144;BME280;3103;49.492;8.474;2023-02-22T08:40:32;100330.84;;;9.29;69.37
6144;BME280;3103;49.492;8.474;2023-02-22T08:42:59;100331.53;;;9.36;68.50
6144;BME280;3103;49.492;8.474;2023-02-22T08:45:27;100335.16;;;9.30;69.00
6144;BME280;3103;49.492;8.474;2023-02-22T08:47:54;100334.94;;;9.43;68.48
6144;BME280;3103;49.492;8.474;2023-02-22T08:50:24;100342.69;;;9.80;67.51
6144;BME280;3103;49.492;8.474;2023-02-22T08:52:55;100337.47;;;10.14;66.69
6144;BME280;3103;49.492;8.474;2023-02-22T08:55:32;100336.22;;;10.04;66.44
6144;BME280;3103;49.492;8.474;2023-02-22T08:58:00;100336.06;;;10.11;67.26
6144;BME280;3103;49.492;8.474;2023-02-22T09:00:29;100335.25;;;10.22;66.28
6144;BME280;3103;49.492;8.474;2023-02-22T09:03:02;100331.13;;;10.31;65.97
6144;BME280;3103;49.492;8.474;2023-02-22T09:05:29;100331.94;;;10.60;65.89
6144;BME280;3103;49.492;8.474;2023-02-22T09:07:57;100334.38;;;10.79;65.23
6144;BME280;3103;49.492;8.474;2023-02-22T09:10:27;100329.56;;;10.81;64.78
6144;BME280;3103;49.492;8.474;2023-02-22T09:12:55;100326.31;;;10.95;64.54
6144;BME280;3103;49.492;8.474;2023-02-22T09:15:23;100326.34;;;11.12;63.04
6144;BME280;3103;49.492;8.474;2023-02-22T09:17:51;100323.94;;;11.33;64.09
6144;BME280;3103;49.492;8.474;2023-02-22T09:20:19;100323.75;;;11.39;62.77
6144;BME280;3103;49.492;8.474;2023-02-22T09:22:48;100325.97;;;11.42;63.14
6144;BME280;3103;49.492;8.474;2023-02-22T09:25:16;100316.97;;;11.53;65.14
6144;BME280;3103;49.492;8.474;2023-02-22T09:27:46;100329.09;;;11.17;63.44
6144;BME280;3103;49.492;8.474;2023-02-22T09:30:23;100321.66;;;11.24;64.28
6144;BME280;3103;49.492;8.474;2023-02-22T09:32:53;100311.25;;;10.94;64.56
6144;BME280;3103;49.492;8.474;2023-02-22T09:35:21;100323.16;;;11.15;65.10
6144;BME280;3103;49.492;8.474;2023-02-22T09:37:57;100312.72;;;11.02;63.73
6144;BME280;3103;49.492;8.474;2023-02-22T09:40:27;100314.66;;;10.56;64.31
6144;BME280;3103;49.492;8.474;2023-02-22T09:43:18;100310.00;;;10.52;65.33
6144;BME280;3103;49.492;8.474;2023-02-22T09:48:58;100300.75;;;10.93;67.46
6144;BME280;3103;49.492;8.474;2023-02-22T09:51:30;100296.19;;;10.93;66.47
6144;BME280;3103;49.492;8.474;2023-02-22T09:54:02;100302.16;;;11.12;64.25
6144;BME280;3103;49.492;8.474;2023-02-22T09:56:31;100295.03;;;11.06;63.65
6144;BME280;3103;49.492;8.474;2023-02-22T09:59:01;100287.13;;;11.16;65.16
6144;BME280;3103;49.492;8.474;2023-02-22T10:01:45;100294.22;;;11.06;63.28
6144;BME280;3103;49.492;8.474;2023-02-22T10:04:22;100288.59;;;11.07;63.30
6144;BME280;3103;49.492;8.474;2023-02-22T10:07:05;100287.63;;;10.96;63.62
6144;BME280;3103;49.492;8.474;2023-02-22T10:09:40;100289.97;;;11.10;63.98
6144;BME280;3103;49.492;8.474;2023-02-22T10:12:30;100294.22;;;11.22;62.94
6144;BME280;3103;49.492;8.474;2023-02-22T10:21:01;100287.72;;;11.57;63.45
6144;BME280;3103;49.492;8.474;2023-02-22T10:24:17;100286.44;;;11.65;61.19
6144;BME280;3103;49.492;8.474;2023-02-22T10:26:51;100284.06;;;11.68;62.35
6144;BME280;3103;49.492;8.474;2023-02-22T10:29:45;100280.53;;;11.84;62.29
6144;BME280;3103;49.492;8.474;2023-02-22T10:32:19;100284.94;;;11.74;61.01
6144;BME280;3103;49.492;8.474;2023-02-22T10:34:49;100284.72;;;11.97;61.43
6144;BME280;3103;49.492;8.474;2023-02-22T10:37:26;100272.25;;;12.13;60.75
6144;BME280;3103;49.492;8.474;2023-02-22T10:39:59;100275.50;;;12.15;60.13
6144;BME280;3103;49.492;8.474;2023-02-22T10:42:30;100277.72;;;12.23;60.05
6144;BME280;3103;49.492;8.474;2023-02-22T10:44:57;100277.16;;;12.21;59.21
6144;BME280;3103;49.492;8.474;2023-02-22T10:47:24;100275.84;;;11.97;58.84
6144;BME280;3103;49.492;8.474;2023-02-22T10:49:55;100275.75;;;11.70;59.17
6144;BME280;3103;49.492;8.474;2023-02-22T10:54:54;100274.94;;;12.13;59.74
6144;BME280;3103;49.492;8.474;2023-02-22T10:57:41;100269.19;;;12.31;60.25
6144;BME280;3103;49.492;8.474;2023-02-22T11:00:21;100267.59;;;12.35;57.68
6144;BME280;3103;49.492;8.474;2023-02-22T11:03:03;100277.97;;;12.22;57.67
6144;BME280;3103;49.492;8.474;2023-02-22T11:05:41;100260.47;;;12.51;57.26
6144;BME280;3103;49.492;8.474;2023-02-22T11:10:52;100257.47;;;12.47;57.06
6144;BME280;3103;49.492;8.474;2023-02-22T11:13:36;100261.91;;;12.05;57.92
6144;BME280;3103;49.492;8.474;2023-02-22T11:16:19;100260.16;;;12.15;58.53
6144;BME280;3103;49.492;8.474;2023-02-22T11:18:47;100259.84;;;12.39;57.73
6144;BME280;3103;49.492;8.474;2023-02-22T11:21:20;100249.63;;;12.78;59.19
6144;BME280;3103;49.492;8.474;2023-02-22T11:23:48;100257.28;;;12.91;56.95
6144;BME280;3103;49.492;8.474;2023-02-22T11:26:17;100255.13;;;12.88;56.41
6144;BME280;3103;49.492;8.474;2023-02-22T11:28:48;100246.47;;;12.86;56.32
6144;BME280;3103;49.492;8.474;2023-02-22T11:31:21;100244.38;;;12.56;56.76
6144;BME280;3103;49.492;8.474;2023-02-22T11:33:54;100243.59;;;12.61;57.02
6144;BME280;3103;49.492;8.474;2023-02-22T11:38:59;100235.03;;;12.69;56.23
6144;BME280;3103;49.492;8.474;2023-02-22T11:41:28;100229.72;;;12.47;57.59
6144;BME280;3103;49.492;8.474;2023-02-22T11:44:21;100233.53;;;12.88;57.83
6144;BME280;3103;49.492;8.474;2023-02-22T11:46:50;100225.84;;;13.07;57.09
6144;BME280;3103;49.492;8.474;2023-02-22T11:49:17;100219.91;;;13.05;56.69
6144;BME280;3103;49.492;8.474;2023-02-22T11:52:04;100217.47;;;13.03;56.29
6144;BME280;3103;49.492;8.474;2023-02-22T12:00:25;100207.19;;;13.43;56.21
6144;BME280;3103;49.492;8.474;2023-02-22T12:09:17;100204.16;;;13.29;55.99
6144;BME280;3103;49.492;8.474;2023-02-22T12:12:06;100193.69;;;13.38;54.66
6144;BME280;3103;49.492;8.474;2023-02-22T12:15:02;100197.41;;;13.31;54.81
6144;BME280;3103;49.492;8.474;2023-02-22T12:17:39;100192.84;;;13.37;54.71
6144;BME280;3103;49.492;8.474;2023-02-22T12:20:28;100187.72;;;13.35;53.87
6144;BME280;3103;49.492;8.474;2023-02-22T12:23:13;100185.97;;;13.14;54.68
6144;BME280;3103;49.492;8.474;2023-02-22T12:28:46;100182.38;;;13.51;56.23
6144;BME280;3103;49.492;8.474;2023-02-22T12:31:24;100185.09;;;13.56;55.63
6144;BME280;3103;49.492;8.474;2023-02-22T12:34:07;100175.59;;;13.43;54.88
6144;BME280;3103;49.492;8.474;2023-02-22T12:36:42;100179.59;;;13.30;54.90
6144;BME280;3103;49.492;8.474;2023-02-22T12:39:41;100181.28;;;13.47;55.62
6144;BME280;3103;49.492;8.474;2023-02-22T12:42:26;100174.00;;;13.42;55.01
6144;BME280;3103;49.492;8.474;2023-02-22T12:45:01;100168.00;;;13.35;55.17
6144;BME280;3103;49.492;8.474;2023-02-22T12:47:48;100171.56;;;13.41;54.95
6144;BME280;3103;49.492;8.474;2023-02-22T12:50:21;100163.75;;;13.44;55.15
6144;BME280;3103;49.492;8.474;2023-02-22T12:52:54;100165.34;;;13.40;56.60
6144;BME280;3103;49.492;8.474;2023-02-22T12:55:24;100156.47;;;13.50;57.01
6144;BME280;3103;49.492;8.474;2023-02-22T12:58:06;100155.41;;;13.61;55.71
6144;BME280;3103;49.492;8.474;2023-02-22T13:00:47;100162.69;;;13.55;55.46
6144;BME280;3103;49.492;8.474;2023-02-22T13:03:28;100157.84;;;13.52;55.95
6144;BME280;3103;49.492;8.474;2023-02-22T13:08:36;100154.34;;;13.62;56.47
6144;BME280;3103;49.492;8.474;2023-02-22T13:16:40;100151.66;;;13.72;56.29
6144;BME280;3103;49.492;8.474;2023-02-22T13:20:06;100150.28;;;13.64;56.73
6144;BME280;3103;49.492;8.474;2023-02-22T13:22:43;100151.94;;;13.76;56.77
6144;BME280;3103;49.492;8.474;2023-02-22T13:25:22;100147.38;;;13.81;56.69
6144;BME280;3103;49.492;8.474;2023-02-22T13:28:14;100141.97;;;13.81;57.47
6144;BME280;3103;49.492;8.474;2023-02-22T13:30:55;100136.03;;;13.84;57.02
6144;BME280;3103;49.492;8.474;2023-02-22T13:39:19;100136.84;;;13.85;56.79
6144;BME280;3103;49.492;8.474;2023-02-22T13:50:47;100126.56;;;13.92;57.23
6144;BME280;3103;49.492;8.474;2023-02-22T13:53:23;100126.84;;;14.06;56.17
6144;BME280;3103;49.492;8.474;2023-02-22T13:55:54;100126.34;;;14.09;57.11
6144;BME280;3103;49.492;8.474;2023-02-22T13:58:25;100123.34;;;14.15;56.66
6144;BME280;3103;49.492;8.474;2023-02-22T14:00:57;100121.72;;;14.19;56.12
6144;BME280;3103;49.492;8.474;2023-02-22T14:03:32;100114.44;;;14.30;55.95
6144;BME280;3103;49.492;8.474;2023-02-22T14:06:03;100121.47;;;14.11;56.31
6144;BME280;3103;49.492;8.474;2023-02-22T14:11:00;100120.38;;;14.27;56.12
6144;BME280;3103;49.492;8.474;2023-02-22T14:16:22;100119.84;;;14.40;56.17
6144;BME280;3103;49.492;8.474;2023-02-22T14:19:01;100113.63;;;14.45;54.78
6144;BME280;3103;49.492;8.474;2023-02-22T14:21:28;100113.34;;;14.46;55.99
6144;BME280;3103;49.492;8.474;2023-02-22T14:24:05;100113.88;;;14.48;55.74
6144;BME280;3103;49.492;8.474;2023-02-22T14:26:39;100109.84;;;14.56;54.93
6144;BME280;3103;49.492;8.474;2023-02-22T14:34:14;100110.59;;;14.72;54.23
6144;BME280;3103;49.492;8.474;2023-02-22T14:39:44;100109.25;;;14.79;54.97
6144;BME280;3103;49.492;8.474;2023-02-22T14:47:40;100116.50;;;14.94;53.56
6144;BME280;3103;49.492;8.474;2023-02-22T14:50:17;100110.56;;;14.92;53.90
6144;BME280;3103;49.492;8.474;2023-02-22T14:53:00;100113.25;;;14.87;52.70
6144;BME280;3103;49.492;8.474;2023-02-22T14:55:30;100104.66;;;14.70;52.62
6144;BME280;3103;49.492;8.474;2023-02-22T14:58:04;100112.81;;;14.65;52.93
6144;BME280;3103;49.492;8.474;2023-02-22T15:00:42;100103.59;;;14.61;52.71
6144;BME280;3103;49.492;8.474;2023-02-22T15:03:33;100100.38;;;14.59;52.65
6144;BME280;3103;49.492;8.474;2023-02-22T15:06:13;100100.94;;;14.50;52.40
6144;BME280;3103;49.492;8.474;2023-02-22T15:08:42;100088.22;;;14.46;52.62
6144;BME280;3103;49.492;8.474;2023-02-22T15:11:23;100086.84;;;14.48;51.98
6144;BME280;3103;49.492;8.474;2023-02-22T15:13:53;100094.16;;;14.48;52.18
6144;BME280;3103;49.492;8.474;2023-02-22T15:16:21;100086.03;;;14.43;52.35
6144;BME280;3103;49.492;8.474;2023-02-22T15:18:51;100088.22;;;14.46;52.50
6144;BME280;3103;49.492;8.474;2023-02-22T15:21:22;100083.88;;;14.35;53.71
6144;BME280;3103;49.492;8.474;2023-02-22T15:23:51;100089.81;;;14.42;53.28
6144;BME280;3103;49.492;8.474;2023-02-22T15:26:36;100087.41;;;14.45;52.50